Tilleda, Wisconsin
Current Conditions -  °F | °C
As of 1:35 PM on Thursday 23 Oct 2014 (Local Time) from KCLI Reporting Station
Heavy Rain Heavy Rain  
Wind Chill: 45°   Ceiling: 3100
Heat Index: 45°   Visibility: 4mi
Dew Point: 43°   Wind: 3mph
Humidity: 93%   Direction: 190°S
Pressure: 30.07"   Gusts: NA
Location:  44.82°N, 88.91°W
Report Text: KCLI 231835Z AUTO 19003KT 4SM +RA OVC031 07/06 A3007 RMK AO2 P0005
Loading
Personal Weather Stations






























Interactive Weather Map
Tropical Storm Tracking
New forecast layout! Learn more

10-Day Weather Forecast

Advertisements
Track Severe Weather on mobile